sensor_id;sensor_type;location;lat;lon;timestamp;P1;durP1;ratioP1;P2;durP2;ratioP2
27199;SDS011;14714;48.106;11.546;2022-12-18T00:02:12;54.00;;;21.88;;
27199;SDS011;14714;48.106;11.546;2022-12-18T00:04:39;52.20;;;22.38;;
27199;SDS011;14714;48.106;11.546;2022-12-18T00:07:06;52.35;;;22.20;;
27199;SDS011;14714;48.106;11.546;2022-12-18T00:09:33;46.42;;;20.45;;
27199;SDS011;14714;48.106;11.546;2022-12-18T00:12:05;46.20;;;20.98;;
27199;SDS011;14714;48.106;11.546;2022-12-18T00:14:41;51.88;;;21.67;;
27199;SDS011;14714;48.106;11.546;2022-12-18T00:17:08;50.95;;;21.48;;
27199;SDS011;14714;48.106;11.546;2022-12-18T00:19:35;53.13;;;21.55;;
27199;SDS011;14714;48.106;11.546;2022-12-18T00:22:02;58.67;;;21.48;;
27199;SDS011;14714;48.106;11.546;2022-12-18T00:24:28;51.85;;;20.95;;
27199;SDS011;14714;48.106;11.546;2022-12-18T00:26:55;52.20;;;21.10;;
27199;SDS011;14714;48.106;11.546;2022-12-18T00:29:22;53.95;;;21.50;;
27199;SDS011;14714;48.106;11.546;2022-12-18T00:31:49;52.30;;;21.17;;
27199;SDS011;14714;48.106;11.546;2022-12-18T00:34:15;53.88;;;20.48;;
27199;SDS011;14714;48.106;11.546;2022-12-18T00:36:42;49.85;;;20.38;;
27199;SDS011;14714;48.106;11.546;2022-12-18T00:39:09;44.88;;;19.83;;
27199;SDS011;14714;48.106;11.546;2022-12-18T00:41:37;51.53;;;19.95;;
27199;SDS011;14714;48.106;11.546;2022-12-18T00:44:22;46.40;;;19.33;;
27199;SDS011;14714;48.106;11.546;2022-12-18T00:46:49;51.22;;;20.23;;
27199;SDS011;14714;48.106;11.546;2022-12-18T00:49:16;48.17;;;19.75;;
27199;SDS011;14714;48.106;11.546;2022-12-18T00:51:45;48.40;;;19.33;;
27199;SDS011;14714;48.106;11.546;2022-12-18T00:54:12;47.67;;;20.55;;
27199;SDS011;14714;48.106;11.546;2022-12-18T00:56:39;49.67;;;20.50;;
27199;SDS011;14714;48.106;11.546;2022-12-18T00:59:16;46.05;;;19.38;;
27199;SDS011;14714;48.106;11.546;2022-12-18T01:01:44;46.80;;;19.13;;
27199;SDS011;14714;48.106;11.546;2022-12-18T01:04:11;54.92;;;20.73;;
27199;SDS011;14714;48.106;11.546;2022-12-18T01:06:38;47.58;;;19.33;;
27199;SDS011;14714;48.106;11.546;2022-12-18T01:09:05;49.95;;;19.92;;
27199;SDS011;14714;48.106;11.546;2022-12-18T01:11:32;48.90;;;20.15;;
27199;SDS011;14714;48.106;11.546;2022-12-18T01:13:59;48.58;;;19.73;;
27199;SDS011;14714;48.106;11.546;2022-12-18T01:16:26;47.83;;;19.20;;
27199;SDS011;14714;48.106;11.546;2022-12-18T01:18:53;49.45;;;20.00;;
27199;SDS011;14714;48.106;11.546;2022-12-18T01:21:21;50.95;;;19.83;;
27199;SDS011;14714;48.106;11.546;2022-12-18T01:23:52;45.92;;;19.23;;
27199;SDS011;14714;48.106;11.546;2022-12-18T01:26:21;44.80;;;19.63;;
27199;SDS011;14714;48.106;11.546;2022-12-18T01:28:48;47.42;;;18.65;;
27199;SDS011;14714;48.106;11.546;2022-12-18T01:31:19;43.53;;;18.38;;
27199;SDS011;14714;48.106;11.546;2022-12-18T01:33:47;45.40;;;18.13;;
27199;SDS011;14714;48.106;11.546;2022-12-18T01:36:19;50.88;;;19.40;;
27199;SDS011;14714;48.106;11.546;2022-12-18T01:38:48;46.22;;;19.35;;
27199;SDS011;14714;48.106;11.546;2022-12-18T01:41:18;46.03;;;18.30;;
27199;SDS011;14714;48.106;11.546;2022-12-18T01:43:51;47.47;;;18.55;;
27199;SDS011;14714;48.106;11.546;2022-12-18T01:46:23;43.42;;;17.80;;
27199;SDS011;14714;48.106;11.546;2022-12-18T01:48:53;45.97;;;18.17;;
27199;SDS011;14714;48.106;11.546;2022-12-18T01:51:25;47.22;;;18.98;;
27199;SDS011;14714;48.106;11.546;2022-12-18T01:53:54;52.58;;;19.42;;
27199;SDS011;14714;48.106;11.546;2022-12-18T01:56:21;49.72;;;19.10;;
27199;SDS011;14714;48.106;11.546;2022-12-18T01:58:50;43.00;;;18.13;;
27199;SDS011;14714;48.106;11.546;2022-12-18T02:01:27;47.72;;;18.88;;
27199;SDS011;14714;48.106;11.546;2022-12-18T02:06:44;45.85;;;18.77;;
27199;SDS011;14714;48.106;11.546;2022-12-18T02:09:15;47.72;;;19.38;;
27199;SDS011;14714;48.106;11.546;2022-12-18T02:14:32;50.30;;;19.75;;
27199;SDS011;14714;48.106;11.546;2022-12-18T02:17:28;52.90;;;20.92;;
27199;SDS011;14714;48.106;11.546;2022-12-18T02:22:45;55.03;;;21.95;;
27199;SDS011;14714;48.106;11.546;2022-12-18T02:28:28;56.45;;;21.92;;
27199;SDS011;14714;48.106;11.546;2022-12-18T02:31:00;56.63;;;21.05;;
27199;SDS011;14714;48.106;11.546;2022-12-18T02:33:30;57.15;;;21.10;;
27199;SDS011;14714;48.106;11.546;2022-12-18T02:35:59;59.63;;;22.88;;
27199;SDS011;14714;48.106;11.546;2022-12-18T02:38:27;61.03;;;23.08;;
27199;SDS011;14714;48.106;11.546;2022-12-18T02:40:56;67.23;;;24.37;;
27199;SDS011;14714;48.106;11.546;2022-12-18T02:43:23;56.67;;;21.58;;
27199;SDS011;14714;48.106;11.546;2022-12-18T02:45:52;58.22;;;23.23;;
27199;SDS011;14714;48.106;11.546;2022-12-18T02:48:29;63.38;;;23.05;;
27199;SDS011;14714;48.106;11.546;2022-12-18T02:51:08;60.92;;;22.73;;
27199;SDS011;14714;48.106;11.546;2022-12-18T02:56:20;62.17;;;24.27;;
27199;SDS011;14714;48.106;11.546;2022-12-18T02:58:55;64.65;;;24.27;;
27199;SDS011;14714;48.106;11.546;2022-12-18T03:01:35;62.55;;;23.65;;
27199;SDS011;14714;48.106;11.546;2022-12-18T03:04:38;59.53;;;22.42;;
27199;SDS011;14714;48.106;11.546;2022-12-18T03:07:15;59.50;;;23.65;;
27199;SDS011;14714;48.106;11.546;2022-12-18T03:09:48;60.35;;;22.58;;
27199;SDS011;14714;48.106;11.546;2022-12-18T03:12:30;62.45;;;23.75;;
27199;SDS011;14714;48.106;11.546;2022-12-18T03:15:02;57.58;;;21.33;;
27199;SDS011;14714;48.106;11.546;2022-12-18T03:17:48;57.08;;;22.52;;
27199;SDS011;14714;48.106;11.546;2022-12-18T03:20:22;58.80;;;23.05;;
27199;SDS011;14714;48.106;11.546;2022-12-18T03:22:53;52.17;;;21.08;;
27199;SDS011;14714;48.106;11.546;2022-12-18T03:25:25;59.05;;;23.45;;
27199;SDS011;14714;48.106;11.546;2022-12-18T03:27:54;58.83;;;23.80;;
27199;SDS011;14714;48.106;11.546;2022-12-18T03:30:24;56.10;;;22.73;;
27199;SDS011;14714;48.106;11.546;2022-12-18T03:32:58;58.80;;;22.30;;
27199;SDS011;14714;48.106;11.546;2022-12-18T03:35:41;55.08;;;22.30;;
27199;SDS011;14714;48.106;11.546;2022-12-18T03:38:09;51.72;;;21.40;;
27199;SDS011;14714;48.106;11.546;2022-12-18T03:40:45;55.25;;;20.98;;
27199;SDS011;14714;48.106;11.546;2022-12-18T03:49:21;55.10;;;21.98;;
27199;SDS011;14714;48.106;11.546;2022-12-18T03:54:39;61.58;;;22.27;;
27199;SDS011;14714;48.106;11.546;2022-12-18T03:57:13;61.83;;;22.17;;
27199;SDS011;14714;48.106;11.546;2022-12-18T03:59:53;58.28;;;23.15;;
27199;SDS011;14714;48.106;11.546;2022-12-18T04:02:23;59.92;;;23.98;;
27199;SDS011;14714;48.106;11.546;2022-12-18T04:04:52;53.17;;;21.60;;
27199;SDS011;14714;48.106;11.546;2022-12-18T04:07:23;62.25;;;22.83;;
27199;SDS011;14714;48.106;11.546;2022-12-18T04:09:51;59.65;;;23.02;;
27199;SDS011;14714;48.106;11.546;2022-12-18T04:12:25;61.45;;;22.60;;
27199;SDS011;14714;48.106;11.546;2022-12-18T04:14:54;56.25;;;22.40;;
27199;SDS011;14714;48.106;11.546;2022-12-18T04:17:21;55.30;;;21.85;;
27199;SDS011;14714;48.106;11.546;2022-12-18T04:19:48;55.17;;;22.50;;
27199;SDS011;14714;48.106;11.546;2022-12-18T04:22:15;55.10;;;21.88;;
27199;SDS011;14714;48.106;11.546;2022-12-18T04:24:42;59.88;;;23.35;;
27199;SDS011;14714;48.106;11.546;2022-12-18T04:27:09;60.15;;;22.42;;
27199;SDS011;14714;48.106;11.546;2022-12-18T04:29:35;53.85;;;22.40;;
27199;SDS011;14714;48.106;11.546;2022-12-18T04:32:02;54.25;;;21.63;;
27199;SDS011;14714;48.106;11.546;2022-12-18T04:34:29;57.53;;;22.38;;
27199;SDS011;14714;48.106;11.546;2022-12-18T04:36:56;51.58;;;20.52;;
27199;SDS011;14714;48.106;11.546;2022-12-18T04:39:23;59.50;;;22.48;;
27199;SDS011;14714;48.106;11.546;2022-12-18T04:41:50;60.80;;;22.95;;
27199;SDS011;14714;48.106;11.546;2022-12-18T04:44:17;54.55;;;22.27;;
27199;SDS011;14714;48.106;11.546;2022-12-18T04:46:44;57.35;;;21.98;;
27199;SDS011;14714;48.106;11.546;2022-12-18T04:49:11;57.05;;;23.67;;
27199;SDS011;14714;48.106;11.546;2022-12-18T04:51:38;55.15;;;21.63;;
27199;SDS011;14714;48.106;11.546;2022-12-18T04:54:05;56.50;;;22.45;;
27199;SDS011;14714;48.106;11.546;2022-12-18T04:56:32;61.28;;;22.30;;
27199;SDS011;14714;48.106;11.546;2022-12-18T04:58:58;59.25;;;23.10;;
27199;SDS011;14714;48.106;11.546;2022-12-18T05:01:25;50.42;;;21.15;;
27199;SDS011;14714;48.106;11.546;2022-12-18T05:04:00;53.70;;;22.17;;
27199;SDS011;14714;48.106;11.546;2022-12-18T05:06:27;52.97;;;21.63;;
27199;SDS011;14714;48.106;11.546;2022-12-18T05:08:54;51.35;;;21.42;;
27199;SDS011;14714;48.106;11.546;2022-12-18T05:11:20;54.58;;;21.13;;
27199;SDS011;14714;48.106;11.546;2022-12-18T05:13:47;53.42;;;21.25;;
27199;SDS011;14714;48.106;11.546;2022-12-18T05:16:14;48.67;;;19.85;;
27199;SDS011;14714;48.106;11.546;2022-12-18T05:18:41;50.85;;;20.25;;
27199;SDS011;14714;48.106;11.546;2022-12-18T05:21:08;50.63;;;19.67;;
27199;SDS011;14714;48.106;11.546;2022-12-18T05:23:36;53.40;;;20.20;;
27199;SDS011;14714;48.106;11.546;2022-12-18T05:26:04;50.58;;;20.55;;
27199;SDS011;14714;48.106;11.546;2022-12-18T05:28:33;48.15;;;19.98;;
27199;SDS011;14714;48.106;11.546;2022-12-18T05:31:02;52.90;;;21.17;;
27199;SDS011;14714;48.106;11.546;2022-12-18T05:33:31;52.30;;;21.00;;
27199;SDS011;14714;48.106;11.546;2022-12-18T05:36:03;48.92;;;20.38;;
27199;SDS011;14714;48.106;11.546;2022-12-18T05:38:32;44.70;;;18.75;;
27199;SDS011;14714;48.106;11.546;2022-12-18T05:41:01;50.80;;;21.35;;
27199;SDS011;14714;48.106;11.546;2022-12-18T05:43:28;46.97;;;20.27;;
27199;SDS011;14714;48.106;11.546;2022-12-18T05:45:55;46.90;;;18.63;;
27199;SDS011;14714;48.106;11.546;2022-12-18T05:48:23;51.22;;;20.23;;
27199;SDS011;14714;48.106;11.546;2022-12-18T05:50:50;49.63;;;20.30;;
27199;SDS011;14714;48.106;11.546;2022-12-18T05:53:18;45.83;;;18.63;;
27199;SDS011;14714;48.106;11.546;2022-12-18T05:55:46;49.97;;;20.05;;
27199;SDS011;14714;48.106;11.546;2022-12-18T05:58:14;45.35;;;19.48;;
27199;SDS011;14714;48.106;11.546;2022-12-18T06:00:43;45.10;;;18.73;;
27199;SDS011;14714;48.106;11.546;2022-12-18T06:03:11;44.10;;;18.08;;
27199;SDS011;14714;48.106;11.546;2022-12-18T06:05:41;43.28;;;18.05;;
27199;SDS011;14714;48.106;11.546;2022-12-18T06:08:10;41.63;;;18.27;;
27199;SDS011;14714;48.106;11.546;2022-12-18T06:10:38;44.10;;;17.77;;
27199;SDS011;14714;48.106;11.546;2022-12-18T06:13:05;47.15;;;18.92;;
27199;SDS011;14714;48.106;11.546;2022-12-18T06:15:32;48.97;;;19.42;;
27199;SDS011;14714;48.106;11.546;2022-12-18T06:18:02;47.30;;;19.35;;
27199;SDS011;14714;48.106;11.546;2022-12-18T06:20:30;45.92;;;18.95;;
27199;SDS011;14714;48.106;11.546;2022-12-18T06:22:59;46.55;;;19.88;;
27199;SDS011;14714;48.106;11.546;2022-12-18T06:25:26;45.85;;;18.98;;
27199;SDS011;14714;48.106;11.546;2022-12-18T06:27:52;47.17;;;19.50;;
27199;SDS011;14714;48.106;11.546;2022-12-18T06:30:19;49.13;;;18.40;;
27199;SDS011;14714;48.106;11.546;2022-12-18T06:32:47;45.38;;;18.60;;
27199;SDS011;14714;48.106;11.546;2022-12-18T06:35:21;44.83;;;18.35;;
27199;SDS011;14714;48.106;11.546;2022-12-18T06:37:48;48.75;;;19.83;;
27199;SDS011;14714;48.106;11.546;2022-12-18T06:40:15;45.83;;;19.23;;
27199;SDS011;14714;48.106;11.546;2022-12-18T06:42:42;47.88;;;19.30;;
27199;SDS011;14714;48.106;11.546;2022-12-18T06:45:09;47.83;;;19.15;;
27199;SDS011;14714;48.106;11.546;2022-12-18T06:47:37;43.20;;;18.00;;
27199;SDS011;14714;48.106;11.546;2022-12-18T06:50:04;45.97;;;19.05;;
27199;SDS011;14714;48.106;11.546;2022-12-18T06:52:32;44.90;;;19.10;;
27199;SDS011;14714;48.106;11.546;2022-12-18T06:54:59;45.83;;;19.20;;
27199;SDS011;14714;48.106;11.546;2022-12-18T06:57:26;47.95;;;19.15;;
27199;SDS011;14714;48.106;11.546;2022-12-18T06:59:53;47.83;;;18.70;;
27199;SDS011;14714;48.106;11.546;2022-12-18T07:02:19;44.17;;;18.90;;
27199;SDS011;14714;48.106;11.546;2022-12-18T07:04:46;48.33;;;19.00;;
27199;SDS011;14714;48.106;11.546;2022-12-18T07:07:13;46.90;;;18.60;;
27199;SDS011;14714;48.106;11.546;2022-12-18T07:09:40;46.65;;;18.85;;
27199;SDS011;14714;48.106;11.546;2022-12-18T07:12:07;51.05;;;19.23;;
27199;SDS011;14714;48.106;11.546;2022-12-18T07:14:34;45.60;;;18.85;;
27199;SDS011;14714;48.106;11.546;2022-12-18T07:17:00;49.47;;;19.90;;
27199;SDS011;14714;48.106;11.546;2022-12-18T07:19:27;53.60;;;20.05;;
27199;SDS011;14714;48.106;11.546;2022-12-18T07:21:56;49.10;;;19.92;;
27199;SDS011;14714;48.106;11.546;2022-12-18T07:24:22;48.30;;;19.77;;
27199;SDS011;14714;48.106;11.546;2022-12-18T07:26:49;49.08;;;20.50;;
27199;SDS011;14714;48.106;11.546;2022-12-18T07:29:16;53.88;;;20.27;;
27199;SDS011;14714;48.106;11.546;2022-12-18T07:31:43;48.03;;;19.13;;
27199;SDS011;14714;48.106;11.546;2022-12-18T07:34:10;51.33;;;19.83;;
27199;SDS011;14714;48.106;11.546;2022-12-18T07:36:38;52.22;;;20.13;;
27199;SDS011;14714;48.106;11.546;2022-12-18T07:39:05;49.97;;;19.92;;
27199;SDS011;14714;48.106;11.546;2022-12-18T07:41:32;48.10;;;19.48;;
27199;SDS011;14714;48.106;11.546;2022-12-18T07:43:59;49.33;;;20.05;;
27199;SDS011;14714;48.106;11.546;2022-12-18T07:46:26;45.30;;;18.60;;
27199;SDS011;14714;48.106;11.546;2022-12-18T07:48:52;48.83;;;18.90;;
27199;SDS011;14714;48.106;11.546;2022-12-18T07:51:19;47.28;;;18.88;;
27199;SDS011;14714;48.106;11.546;2022-12-18T07:53:46;50.45;;;20.40;;
27199;SDS011;14714;48.106;11.546;2022-12-18T07:56:17;47.70;;;18.75;;
27199;SDS011;14714;48.106;11.546;2022-12-18T07:58:55;51.22;;;20.23;;
27199;SDS011;14714;48.106;11.546;2022-12-18T08:01:22;48.08;;;19.27;;
27199;SDS011;14714;48.106;11.546;2022-12-18T08:03:49;47.78;;;19.92;;
27199;SDS011;14714;48.106;11.546;2022-12-18T08:06:17;46.75;;;18.05;;
27199;SDS011;14714;48.106;11.546;2022-12-18T08:08:47;48.33;;;19.27;;
27199;SDS011;14714;48.106;11.546;2022-12-18T08:11:15;49.58;;;19.38;;
27199;SDS011;14714;48.106;11.546;2022-12-18T08:13:42;43.75;;;18.45;;
27199;SDS011;14714;48.106;11.546;2022-12-18T08:16:08;45.97;;;19.30;;
27199;SDS011;14714;48.106;11.546;2022-12-18T08:18:36;47.33;;;19.27;;
27199;SDS011;14714;48.106;11.546;2022-12-18T08:21:10;49.70;;;19.75;;
27199;SDS011;14714;48.106;11.546;2022-12-18T08:23:39;43.30;;;18.50;;
27199;SDS011;14714;48.106;11.546;2022-12-18T08:26:09;43.65;;;17.85;;
27199;SDS011;14714;48.106;11.546;2022-12-18T08:28:37;47.42;;;19.35;;
27199;SDS011;14714;48.106;11.546;2022-12-18T08:31:04;44.00;;;18.60;;
27199;SDS011;14714;48.106;11.546;2022-12-18T08:33:31;44.47;;;18.60;;
27199;SDS011;14714;48.106;11.546;2022-12-18T08:35:58;42.65;;;17.70;;
27199;SDS011;14714;48.106;11.546;2022-12-18T08:38:26;47.17;;;18.65;;
27199;SDS011;14714;48.106;11.546;2022-12-18T08:41:02;46.80;;;18.52;;
27199;SDS011;14714;48.106;11.546;2022-12-18T08:43:31;43.85;;;17.90;;
27199;SDS011;14714;48.106;11.546;2022-12-18T08:46:17;48.33;;;18.38;;
27199;SDS011;14714;48.106;11.546;2022-12-18T08:48:44;42.97;;;17.23;;
27199;SDS011;14714;48.106;11.546;2022-12-18T08:51:11;41.67;;;17.25;;
27199;SDS011;14714;48.106;11.546;2022-12-18T08:53:38;40.65;;;16.70;;
27199;SDS011;14714;48.106;11.546;2022-12-18T08:56:05;38.35;;;16.63;;
27199;SDS011;14714;48.106;11.546;2022-12-18T08:58:32;40.55;;;17.08;;
27199;SDS011;14714;48.106;11.546;2022-12-18T09:01:00;39.20;;;16.58;;
27199;SDS011;14714;48.106;11.546;2022-12-18T09:03:28;38.33;;;15.98;;
27199;SDS011;14714;48.106;11.546;2022-12-18T09:05:55;39.67;;;16.27;;
27199;SDS011;14714;48.106;11.546;2022-12-18T09:08:22;45.03;;;17.80;;
27199;SDS011;14714;48.106;11.546;2022-12-18T09:10:49;41.80;;;17.02;;
27199;SDS011;14714;48.106;11.546;2022-12-18T09:13:17;39.33;;;16.65;;
27199;SDS011;14714;48.106;11.546;2022-12-18T09:15:48;38.88;;;16.70;;
27199;SDS011;14714;48.106;11.546;2022-12-18T09:18:20;42.38;;;17.08;;
27199;SDS011;14714;48.106;11.546;2022-12-18T09:20:48;42.00;;;17.27;;
27199;SDS011;14714;48.106;11.546;2022-12-18T09:25:44;40.40;;;16.42;;
27199;SDS011;14714;48.106;11.546;2022-12-18T09:28:12;38.90;;;17.00;;
27199;SDS011;14714;48.106;11.546;2022-12-18T09:30:41;38.87;;;16.23;;
27199;SDS011;14714;48.106;11.546;2022-12-18T09:33:10;37.85;;;16.67;;
27199;SDS011;14714;48.106;11.546;2022-12-18T09:35:37;46.00;;;17.45;;
27199;SDS011;14714;48.106;11.546;2022-12-18T09:38:05;36.60;;;16.38;;
27199;SDS011;14714;48.106;11.546;2022-12-18T09:40:42;37.20;;;15.93;;
27199;SDS011;14714;48.106;11.546;2022-12-18T09:43:26;37.65;;;15.93;;
27199;SDS011;14714;48.106;11.546;2022-12-18T09:46:01;40.10;;;16.60;;
27199;SDS011;14714;48.106;11.546;2022-12-18T09:48:34;38.10;;;16.00;;
27199;SDS011;14714;48.106;11.546;2022-12-18T09:54:03;40.03;;;15.75;;
27199;SDS011;14714;48.106;11.546;2022-12-18T09:56:37;34.78;;;15.13;;
27199;SDS011;14714;48.106;11.546;2022-12-18T09:59:09;35.50;;;15.68;;
27199;SDS011;14714;48.106;11.546;2022-12-18T10:01:53;36.05;;;15.55;;
27199;SDS011;14714;48.106;11.546;2022-12-18T10:04:20;39.38;;;16.88;;
27199;SDS011;14714;48.106;11.546;2022-12-18T10:06:50;35.22;;;16.08;;
27199;SDS011;14714;48.106;11.546;2022-12-18T10:09:27;37.90;;;16.08;;
27199;SDS011;14714;48.106;11.546;2022-12-18T10:12:06;38.55;;;16.05;;
27199;SDS011;14714;48.106;11.546;2022-12-18T10:15:01;38.28;;;16.55;;
27199;SDS011;14714;48.106;11.546;2022-12-18T10:20:48;36.97;;;15.60;;
27199;SDS011;14714;48.106;11.546;2022-12-18T10:26:13;38.22;;;16.00;;
27199;SDS011;14714;48.106;11.546;2022-12-18T10:28:40;35.55;;;15.77;;
27199;SDS011;14714;48.106;11.546;2022-12-18T10:31:16;36.45;;;15.95;;
27199;SDS011;14714;48.106;11.546;2022-12-18T10:33:44;35.70;;;15.25;;
27199;SDS011;14714;48.106;11.546;2022-12-18T10:36:12;36.47;;;16.17;;
27199;SDS011;14714;48.106;11.546;2022-12-18T10:38:39;34.63;;;15.18;;
27199;SDS011;14714;48.106;11.546;2022-12-18T10:43:48;39.05;;;16.65;;
27199;SDS011;14714;48.106;11.546;2022-12-18T10:46:34;41.25;;;17.05;;
27199;SDS011;14714;48.106;11.546;2022-12-18T10:49:01;36.63;;;16.85;;
27199;SDS011;14714;48.106;11.546;2022-12-18T10:51:35;33.38;;;15.57;;
27199;SDS011;14714;48.106;11.546;2022-12-18T10:54:04;40.35;;;16.45;;
27199;SDS011;14714;48.106;11.546;2022-12-18T10:56:38;36.67;;;16.45;;
27199;SDS011;14714;48.106;11.546;2022-12-18T10:59:07;37.13;;;16.60;;
27199;SDS011;14714;48.106;11.546;2022-12-18T11:01:55;37.47;;;16.63;;
27199;SDS011;14714;48.106;11.546;2022-12-18T11:04:25;36.50;;;16.48;;
27199;SDS011;14714;48.106;11.546;2022-12-18T11:09:37;37.15;;;16.30;;
27199;SDS011;14714;48.106;11.546;2022-12-18T11:12:14;33.25;;;14.75;;
27199;SDS011;14714;48.106;11.546;2022-12-18T11:14:47;35.90;;;15.55;;
27199;SDS011;14714;48.106;11.546;2022-12-18T11:17:30;36.00;;;15.52;;
27199;SDS011;14714;48.106;11.546;2022-12-18T11:20:03;31.98;;;14.68;;
27199;SDS011;14714;48.106;11.546;2022-12-18T11:22:33;35.70;;;15.80;;
27199;SDS011;14714;48.106;11.546;2022-12-18T11:28:02;32.90;;;15.13;;
27199;SDS011;14714;48.106;11.546;2022-12-18T11:30:37;34.90;;;14.77;;
27199;SDS011;14714;48.106;11.546;2022-12-18T11:33:10;34.47;;;14.65;;
27199;SDS011;14714;48.106;11.546;2022-12-18T11:35:52;31.67;;;15.02;;
27199;SDS011;14714;48.106;11.546;2022-12-18T11:44:18;31.63;;;14.57;;
27199;SDS011;14714;48.106;11.546;2022-12-18T11:46:38;34.75;;;15.35;;
27199;SDS011;14714;48.106;11.546;2022-12-18T11:52:15;35.50;;;16.02;;
27199;SDS011;14714;48.106;11.546;2022-12-18T11:58:24;34.63;;;15.55;;
27199;SDS011;14714;48.106;11.546;2022-12-18T12:01:07;33.28;;;14.93;;
27199;SDS011;14714;48.106;11.546;2022-12-18T12:06:25;34.15;;;15.02;;
27199;SDS011;14714;48.106;11.546;2022-12-18T12:09:24;33.97;;;14.57;;
27199;SDS011;14714;48.106;11.546;2022-12-18T12:14:46;32.72;;;14.38;;
27199;SDS011;14714;48.106;11.546;2022-12-18T12:23:04;35.75;;;15.63;;
27199;SDS011;14714;48.106;11.546;2022-12-18T12:28:12;32.90;;;14.85;;
27199;SDS011;14714;48.106;11.546;2022-12-18T12:33:59;33.10;;;15.00;;
27199;SDS011;14714;48.106;11.546;2022-12-18T12:37:17;37.17;;;16.65;;
27199;SDS011;14714;48.106;11.546;2022-12-18T12:39:23;36.50;;;14.95;;
27199;SDS011;14714;48.106;11.546;2022-12-18T12:41:54;38.53;;;16.02;;
27199;SDS011;14714;48.106;11.546;2022-12-18T12:44:50;34.10;;;14.82;;
27199;SDS011;14714;48.106;11.546;2022-12-18T12:47:41;34.40;;;14.75;;
27199;SDS011;14714;48.106;11.546;2022-12-18T12:50:15;37.05;;;15.73;;
27199;SDS011;14714;48.106;11.546;2022-12-18T12:52:51;35.70;;;15.02;;
27199;SDS011;14714;48.106;11.546;2022-12-18T12:55:22;36.30;;;15.65;;
27199;SDS011;14714;48.106;11.546;2022-12-18T13:01:53;34.70;;;15.90;;
27199;SDS011;14714;48.106;11.546;2022-12-18T13:03:56;34.70;;;14.90;;
27199;SDS011;14714;48.106;11.546;2022-12-18T13:09:16;32.53;;;14.55;;
27199;SDS011;14714;48.106;11.546;2022-12-18T13:11:45;35.05;;;15.30;;
27199;SDS011;14714;48.106;11.546;2022-12-18T13:14:41;36.72;;;15.18;;
27199;SDS011;14714;48.106;11.546;2022-12-18T13:22:40;33.13;;;14.93;;
27199;SDS011;14714;48.106;11.546;2022-12-18T13:35:42;37.80;;;15.75;;
27199;SDS011;14714;48.106;11.546;2022-12-18T13:40:53;34.53;;;15.27;;
27199;SDS011;14714;48.106;11.546;2022-12-18T13:48:31;32.80;;;14.55;;
27199;SDS011;14714;48.106;11.546;2022-12-18T13:51:05;34.67;;;14.85;;
27199;SDS011;14714;48.106;11.546;2022-12-18T13:53:36;36.42;;;14.48;;
27199;SDS011;14714;48.106;11.546;2022-12-18T13:56:09;33.40;;;13.98;;
27199;SDS011;14714;48.106;11.546;2022-12-18T13:58:42;33.33;;;14.70;;
27199;SDS011;14714;48.106;11.546;2022-12-18T14:01:23;34.65;;;15.32;;
27199;SDS011;14714;48.106;11.546;2022-12-18T14:03:51;37.67;;;16.08;;
27199;SDS011;14714;48.106;11.546;2022-12-18T14:06:34;36.90;;;16.17;;
27199;SDS011;14714;48.106;11.546;2022-12-18T14:09:02;39.78;;;16.55;;
27199;SDS011;14714;48.106;11.546;2022-12-18T14:11:29;34.42;;;14.63;;
27199;SDS011;14714;48.106;11.546;2022-12-18T14:13:57;36.53;;;15.40;;
27199;SDS011;14714;48.106;11.546;2022-12-18T14:16:24;36.38;;;15.65;;
27199;SDS011;14714;48.106;11.546;2022-12-18T14:18:55;35.95;;;15.07;;
27199;SDS011;14714;48.106;11.546;2022-12-18T14:21:40;37.38;;;15.38;;
27199;SDS011;14714;48.106;11.546;2022-12-18T14:24:13;37.58;;;15.98;;
27199;SDS011;14714;48.106;11.546;2022-12-18T14:26:45;39.20;;;16.77;;
27199;SDS011;14714;48.106;11.546;2022-12-18T14:29:23;35.30;;;15.13;;
27199;SDS011;14714;48.106;11.546;2022-12-18T14:32:13;38.75;;;16.05;;
27199;SDS011;14714;48.106;11.546;2022-12-18T14:34:44;37.80;;;16.50;;
27199;SDS011;14714;48.106;11.546;2022-12-18T14:37:14;37.85;;;16.60;;
27199;SDS011;14714;48.106;11.546;2022-12-18T14:39:55;40.15;;;15.32;;
27199;SDS011;14714;48.106;11.546;2022-12-18T14:42:24;41.13;;;16.65;;
27199;SDS011;14714;48.106;11.546;2022-12-18T14:48:13;42.47;;;16.45;;
27199;SDS011;14714;48.106;11.546;2022-12-18T14:53:57;38.90;;;16.10;;
27199;SDS011;14714;48.106;11.546;2022-12-18T14:56:32;41.38;;;17.30;;
27199;SDS011;14714;48.106;11.546;2022-12-18T14:59:05;40.33;;;17.77;;
27199;SDS011;14714;48.106;11.546;2022-12-18T15:04:35;46.38;;;17.27;;
27199;SDS011;14714;48.106;11.546;2022-12-18T15:07:12;40.78;;;16.92;;
27199;SDS011;14714;48.106;11.546;2022-12-18T15:09:59;45.30;;;18.17;;
27199;SDS011;14714;48.106;11.546;2022-12-18T15:12:43;43.20;;;17.70;;
27199;SDS011;14714;48.106;11.546;2022-12-18T15:20:26;41.17;;;16.85;;
27199;SDS011;14714;48.106;11.546;2022-12-18T15:22:53;38.25;;;16.40;;
27199;SDS011;14714;48.106;11.546;2022-12-18T15:25:38;41.60;;;16.80;;
27199;SDS011;14714;48.106;11.546;2022-12-18T15:28:15;42.05;;;16.77;;
27199;SDS011;14714;48.106;11.546;2022-12-18T15:36:22;39.67;;;16.63;;
27199;SDS011;14714;48.106;11.546;2022-12-18T15:38:53;43.08;;;17.48;;
27199;SDS011;14714;48.106;11.546;2022-12-18T15:41:34;35.97;;;15.32;;
27199;SDS011;14714;48.106;11.546;2022-12-18T15:44:02;38.80;;;16.20;;
27199;SDS011;14714;48.106;11.546;2022-12-18T15:46:43;41.53;;;16.20;;
27199;SDS011;14714;48.106;11.546;2022-12-18T15:49:10;40.60;;;15.52;;
27199;SDS011;14714;48.106;11.546;2022-12-18T15:51:36;46.58;;;17.02;;
27199;SDS011;14714;48.106;11.546;2022-12-18T15:54:05;41.92;;;16.73;;
27199;SDS011;14714;48.106;11.546;2022-12-18T15:56:35;40.85;;;17.80;;
27199;SDS011;14714;48.106;11.546;2022-12-18T15:59:22;49.75;;;18.73;;
27199;SDS011;14714;48.106;11.546;2022-12-18T16:01:49;47.50;;;17.88;;
27199;SDS011;14714;48.106;11.546;2022-12-18T16:04:19;46.28;;;18.20;;
27199;SDS011;14714;48.106;11.546;2022-12-18T16:06:47;45.75;;;17.73;;
27199;SDS011;14714;48.106;11.546;2022-12-18T16:09:35;46.17;;;18.45;;
27199;SDS011;14714;48.106;11.546;2022-12-18T16:12:02;51.50;;;20.15;;
27199;SDS011;14714;48.106;11.546;2022-12-18T16:14:29;45.15;;;17.75;;
27199;SDS011;14714;48.106;11.546;2022-12-18T16:16:57;48.40;;;20.15;;
27199;SDS011;14714;48.106;11.546;2022-12-18T16:19:26;46.30;;;19.87;;
27199;SDS011;14714;48.106;11.546;2022-12-18T16:21:54;47.67;;;18.92;;
27199;SDS011;14714;48.106;11.546;2022-12-18T16:24:23;50.95;;;19.58;;
27199;SDS011;14714;48.106;11.546;2022-12-18T16:26:52;47.72;;;18.85;;
27199;SDS011;14714;48.106;11.546;2022-12-18T16:29:20;47.92;;;19.55;;
27199;SDS011;14714;48.106;11.546;2022-12-18T16:31:50;48.75;;;19.08;;
27199;SDS011;14714;48.106;11.546;2022-12-18T16:34:19;49.65;;;18.45;;